sensor_id;sensor_type;location;lat;lon;timestamp;temperature;humidity
5130;DHT22;2583;50.946;6.954;2023-05-31T00:00:12;15.50;99.90
5130;DHT22;2583;50.946;6.954;2023-05-31T00:02:39;15.50;99.90
5130;DHT22;2583;50.946;6.954;2023-05-31T00:05:07;15.50;99.90
5130;DHT22;2583;50.946;6.954;2023-05-31T00:07:34;15.50;99.90
5130;DHT22;2583;50.946;6.954;2023-05-31T00:10:01;15.40;99.90
5130;DHT22;2583;50.946;6.954;2023-05-31T00:12:28;15.40;99.90
5130;DHT22;2583;50.946;6.954;2023-05-31T00:14:54;15.40;99.90
5130;DHT22;2583;50.946;6.954;2023-05-31T00:17:21;15.30;99.90
5130;DHT22;2583;50.946;6.954;2023-05-31T00:19:51;15.40;99.90
5130;DHT22;2583;50.946;6.954;2023-05-31T00:22:18;15.30;99.90
5130;DHT22;2583;50.946;6.954;2023-05-31T00:24:44;15.30;99.90
5130;DHT22;2583;50.946;6.954;2023-05-31T00:27:11;15.30;99.90
5130;DHT22;2583;50.946;6.954;2023-05-31T00:29:38;15.30;99.90
5130;DHT22;2583;50.946;6.954;2023-05-31T00:32:05;15.30;99.90
5130;DHT22;2583;50.946;6.954;2023-05-31T00:34:31;15.30;99.90
5130;DHT22;2583;50.946;6.954;2023-05-31T00:36:58;15.20;99.90
5130;DHT22;2583;50.946;6.954;2023-05-31T00:39:25;15.20;99.90
5130;DHT22;2583;50.946;6.954;2023-05-31T00:41:52;15.20;99.90
5130;DHT22;2583;50.946;6.954;2023-05-31T00:44:18;15.20;99.90
5130;DHT22;2583;50.946;6.954;2023-05-31T00:46:46;15.20;99.90
5130;DHT22;2583;50.946;6.954;2023-05-31T00:49:12;15.10;99.90
5130;DHT22;2583;50.946;6.954;2023-05-31T00:51:39;15.20;99.90
5130;DHT22;2583;50.946;6.954;2023-05-31T00:54:07;15.10;99.90
5130;DHT22;2583;50.946;6.954;2023-05-31T00:56:34;15.10;99.90
5130;DHT22;2583;50.946;6.954;2023-05-31T00:59:01;15.10;99.90
5130;DHT22;2583;50.946;6.954;2023-05-31T01:01:28;15.10;99.90
5130;DHT22;2583;50.946;6.954;2023-05-31T01:04:00;15.00;99.90
5130;DHT22;2583;50.946;6.954;2023-05-31T01:06:28;15.00;99.90
5130;DHT22;2583;50.946;6.954;2023-05-31T01:09:04;15.00;99.90
5130;DHT22;2583;50.946;6.954;2023-05-31T01:14:25;15.00;99.90
5130;DHT22;2583;50.946;6.954;2023-05-31T01:17:03;15.00;99.90
5130;DHT22;2583;50.946;6.954;2023-05-31T01:19:54;14.90;99.90
5130;DHT22;2583;50.946;6.954;2023-05-31T01:27:36;14.80;99.90
5130;DHT22;2583;50.946;6.954;2023-05-31T01:30:05;14.80;99.90
5130;DHT22;2583;50.946;6.954;2023-05-31T01:32:33;14.80;99.90
5130;DHT22;2583;50.946;6.954;2023-05-31T01:35:01;14.70;99.90
5130;DHT22;2583;50.946;6.954;2023-05-31T01:37:28;14.80;99.90
5130;DHT22;2583;50.946;6.954;2023-05-31T01:39:55;14.70;99.90
5130;DHT22;2583;50.946;6.954;2023-05-31T01:42:23;14.70;99.90
5130;DHT22;2583;50.946;6.954;2023-05-31T01:44:51;14.70;99.90
5130;DHT22;2583;50.946;6.954;2023-05-31T01:47:18;14.70;99.90
5130;DHT22;2583;50.946;6.954;2023-05-31T01:49:47;14.70;99.90
5130;DHT22;2583;50.946;6.954;2023-05-31T01:52:15;14.70;99.90
5130;DHT22;2583;50.946;6.954;2023-05-31T01:54:43;14.70;99.90
5130;DHT22;2583;50.946;6.954;2023-05-31T01:57:12;14.70;99.90
5130;DHT22;2583;50.946;6.954;2023-05-31T01:59:40;14.70;99.90
5130;DHT22;2583;50.946;6.954;2023-05-31T02:02:07;14.70;99.90
5130;DHT22;2583;50.946;6.954;2023-05-31T02:04:35;14.70;99.90
5130;DHT22;2583;50.946;6.954;2023-05-31T02:07:01;14.60;99.90
5130;DHT22;2583;50.946;6.954;2023-05-31T02:09:28;14.70;99.90
5130;DHT22;2583;50.946;6.954;2023-05-31T02:11:55;14.60;99.90
5130;DHT22;2583;50.946;6.954;2023-05-31T02:14:22;14.60;99.90
5130;DHT22;2583;50.946;6.954;2023-05-31T02:16:49;14.50;99.90
5130;DHT22;2583;50.946;6.954;2023-05-31T02:19:15;14.50;99.90
5130;DHT22;2583;50.946;6.954;2023-05-31T02:21:42;14.40;99.90
5130;DHT22;2583;50.946;6.954;2023-05-31T02:24:09;14.40;99.90
5130;DHT22;2583;50.946;6.954;2023-05-31T02:26:35;14.40;99.90
5130;DHT22;2583;50.946;6.954;2023-05-31T02:29:02;14.30;99.90
5130;DHT22;2583;50.946;6.954;2023-05-31T02:31:29;14.30;99.90
5130;DHT22;2583;50.946;6.954;2023-05-31T02:33:56;14.30;99.90
5130;DHT22;2583;50.946;6.954;2023-05-31T02:36:23;14.30;99.90
5130;DHT22;2583;50.946;6.954;2023-05-31T02:38:51;14.30;99.90
5130;DHT22;2583;50.946;6.954;2023-05-31T02:41:18;14.30;99.90
5130;DHT22;2583;50.946;6.954;2023-05-31T02:43:45;14.30;99.90
5130;DHT22;2583;50.946;6.954;2023-05-31T02:46:12;14.30;99.90
5130;DHT22;2583;50.946;6.954;2023-05-31T02:48:38;14.30;99.90
5130;DHT22;2583;50.946;6.954;2023-05-31T02:51:05;14.30;99.90
5130;DHT22;2583;50.946;6.954;2023-05-31T02:53:32;14.30;99.90
5130;DHT22;2583;50.946;6.954;2023-05-31T02:55:59;14.30;99.90
5130;DHT22;2583;50.946;6.954;2023-05-31T02:58:25;14.30;99.90
5130;DHT22;2583;50.946;6.954;2023-05-31T03:00:52;14.20;99.90
5130;DHT22;2583;50.946;6.954;2023-05-31T03:03:19;14.20;99.90
5130;DHT22;2583;50.946;6.954;2023-05-31T03:05:46;14.20;99.90
5130;DHT22;2583;50.946;6.954;2023-05-31T03:08:13;14.20;99.90
5130;DHT22;2583;50.946;6.954;2023-05-31T03:10:39;14.20;99.90
5130;DHT22;2583;50.946;6.954;2023-05-31T03:13:06;14.20;99.90
5130;DHT22;2583;50.946;6.954;2023-05-31T03:15:33;14.20;99.90
5130;DHT22;2583;50.946;6.954;2023-05-31T03:18:02;14.20;99.90
5130;DHT22;2583;50.946;6.954;2023-05-31T03:20:30;14.10;99.90
5130;DHT22;2583;50.946;6.954;2023-05-31T03:22:59;14.20;99.90
5130;DHT22;2583;50.946;6.954;2023-05-31T03:25:27;14.10;99.90
5130;DHT22;2583;50.946;6.954;2023-05-31T03:27:53;14.10;99.90
5130;DHT22;2583;50.946;6.954;2023-05-31T03:30:20;14.20;99.90
5130;DHT22;2583;50.946;6.954;2023-05-31T03:32:47;14.10;99.90
5130;DHT22;2583;50.946;6.954;2023-05-31T03:35:14;14.10;99.90
5130;DHT22;2583;50.946;6.954;2023-05-31T03:37:41;14.10;99.90
5130;DHT22;2583;50.946;6.954;2023-05-31T03:40:08;14.10;99.90
5130;DHT22;2583;50.946;6.954;2023-05-31T03:42:35;14.10;99.90
5130;DHT22;2583;50.946;6.954;2023-05-31T03:45:02;14.00;99.90
5130;DHT22;2583;50.946;6.954;2023-05-31T03:47:29;14.00;99.90
5130;DHT22;2583;50.946;6.954;2023-05-31T03:49:56;14.00;99.90
5130;DHT22;2583;50.946;6.954;2023-05-31T03:52:22;14.00;99.90
5130;DHT22;2583;50.946;6.954;2023-05-31T03:54:49;13.90;99.90
5130;DHT22;2583;50.946;6.954;2023-05-31T03:57:16;13.90;99.90
5130;DHT22;2583;50.946;6.954;2023-05-31T03:59:43;13.90;99.90
5130;DHT22;2583;50.946;6.954;2023-05-31T04:02:10;13.90;99.90
5130;DHT22;2583;50.946;6.954;2023-05-31T04:04:36;13.80;99.90
5130;DHT22;2583;50.946;6.954;2023-05-31T04:07:03;13.80;99.90
5130;DHT22;2583;50.946;6.954;2023-05-31T04:09:30;13.80;99.90
5130;DHT22;2583;50.946;6.954;2023-05-31T04:11:57;13.90;99.90
5130;DHT22;2583;50.946;6.954;2023-05-31T04:14:24;13.80;99.90
5130;DHT22;2583;50.946;6.954;2023-05-31T04:16:51;13.90;99.90
5130;DHT22;2583;50.946;6.954;2023-05-31T04:19:17;13.90;99.90
5130;DHT22;2583;50.946;6.954;2023-05-31T04:21:44;13.90;99.90
5130;DHT22;2583;50.946;6.954;2023-05-31T04:24:12;13.90;99.90
5130;DHT22;2583;50.946;6.954;2023-05-31T04:26:38;14.00;99.90
5130;DHT22;2583;50.946;6.954;2023-05-31T04:29:05;14.00;99.90
5130;DHT22;2583;50.946;6.954;2023-05-31T04:31:32;14.00;99.90
5130;DHT22;2583;50.946;6.954;2023-05-31T04:34:18;14.00;99.90
5130;DHT22;2583;50.946;6.954;2023-05-31T04:36:46;14.00;99.90
5130;DHT22;2583;50.946;6.954;2023-05-31T04:39:18;14.10;99.90
5130;DHT22;2583;50.946;6.954;2023-05-31T04:41:48;14.10;99.90
5130;DHT22;2583;50.946;6.954;2023-05-31T04:44:15;14.10;99.90
5130;DHT22;2583;50.946;6.954;2023-05-31T04:46:42;14.10;99.90
5130;DHT22;2583;50.946;6.954;2023-05-31T04:49:09;14.10;99.90
5130;DHT22;2583;50.946;6.954;2023-05-31T04:51:36;14.20;99.90
5130;DHT22;2583;50.946;6.954;2023-05-31T04:54:03;14.20;99.90
5130;DHT22;2583;50.946;6.954;2023-05-31T04:56:30;14.30;99.90
5130;DHT22;2583;50.946;6.954;2023-05-31T04:58:57;14.30;99.90
5130;DHT22;2583;50.946;6.954;2023-05-31T05:01:23;14.40;99.90
5130;DHT22;2583;50.946;6.954;2023-05-31T05:03:51;14.40;99.90
5130;DHT22;2583;50.946;6.954;2023-05-31T05:06:19;14.50;99.90
5130;DHT22;2583;50.946;6.954;2023-05-31T05:08:46;14.50;99.90
5130;DHT22;2583;50.946;6.954;2023-05-31T05:11:13;14.50;99.90
5130;DHT22;2583;50.946;6.954;2023-05-31T05:13:40;14.60;99.90
5130;DHT22;2583;50.946;6.954;2023-05-31T05:16:07;14.60;99.90
5130;DHT22;2583;50.946;6.954;2023-05-31T05:18:34;14.70;99.90
5130;DHT22;2583;50.946;6.954;2023-05-31T05:21:01;14.70;99.90
5130;DHT22;2583;50.946;6.954;2023-05-31T05:23:28;14.70;99.90
5130;DHT22;2583;50.946;6.954;2023-05-31T05:25:55;14.80;99.90
5130;DHT22;2583;50.946;6.954;2023-05-31T05:28:22;14.90;99.90
5130;DHT22;2583;50.946;6.954;2023-05-31T05:30:49;14.90;99.90
5130;DHT22;2583;50.946;6.954;2023-05-31T05:33:17;14.90;99.90
5130;DHT22;2583;50.946;6.954;2023-05-31T05:35:44;15.00;99.90
5130;DHT22;2583;50.946;6.954;2023-05-31T05:38:10;15.10;99.90
5130;DHT22;2583;50.946;6.954;2023-05-31T05:40:38;15.10;99.90
5130;DHT22;2583;50.946;6.954;2023-05-31T05:43:05;15.10;99.90
5130;DHT22;2583;50.946;6.954;2023-05-31T05:45:32;15.20;99.90
5130;DHT22;2583;50.946;6.954;2023-05-31T05:47:58;15.20;99.90
5130;DHT22;2583;50.946;6.954;2023-05-31T05:50:25;15.30;99.90
5130;DHT22;2583;50.946;6.954;2023-05-31T05:52:53;15.40;99.90
5130;DHT22;2583;50.946;6.954;2023-05-31T05:55:19;15.40;99.90
5130;DHT22;2583;50.946;6.954;2023-05-31T05:57:47;15.50;99.90
5130;DHT22;2583;50.946;6.954;2023-05-31T06:00:14;15.50;99.90
5130;DHT22;2583;50.946;6.954;2023-05-31T06:02:42;15.60;99.90
5130;DHT22;2583;50.946;6.954;2023-05-31T06:05:09;15.70;99.90
5130;DHT22;2583;50.946;6.954;2023-05-31T06:07:36;15.80;99.90
5130;DHT22;2583;50.946;6.954;2023-05-31T06:10:03;15.90;99.90
5130;DHT22;2583;50.946;6.954;2023-05-31T06:12:30;16.00;99.90
5130;DHT22;2583;50.946;6.954;2023-05-31T06:14:57;16.00;99.90
5130;DHT22;2583;50.946;6.954;2023-05-31T06:17:24;16.10;99.90
5130;DHT22;2583;50.946;6.954;2023-05-31T06:19:51;16.20;96.80
5130;DHT22;2583;50.946;6.954;2023-05-31T06:22:18;16.30;94.40
5130;DHT22;2583;50.946;6.954;2023-05-31T06:24:44;16.40;92.80
5130;DHT22;2583;50.946;6.954;2023-05-31T06:27:12;16.50;92.50
5130;DHT22;2583;50.946;6.954;2023-05-31T06:29:41;16.60;90.20
5130;DHT22;2583;50.946;6.954;2023-05-31T06:32:08;16.60;88.60
5130;DHT22;2583;50.946;6.954;2023-05-31T06:34:35;16.70;88.30
5130;DHT22;2583;50.946;6.954;2023-05-31T06:37:01;16.80;88.40
5130;DHT22;2583;50.946;6.954;2023-05-31T06:39:29;16.90;87.00
5130;DHT22;2583;50.946;6.954;2023-05-31T06:41:56;17.00;86.90
5130;DHT22;2583;50.946;6.954;2023-05-31T06:44:25;17.00;84.40
5130;DHT22;2583;50.946;6.954;2023-05-31T06:46:52;17.10;81.00
5130;DHT22;2583;50.946;6.954;2023-05-31T06:49:19;17.20;79.20
5130;DHT22;2583;50.946;6.954;2023-05-31T06:51:46;17.20;79.90
5130;DHT22;2583;50.946;6.954;2023-05-31T06:54:13;17.30;77.60
5130;DHT22;2583;50.946;6.954;2023-05-31T06:56:39;17.40;73.10
5130;DHT22;2583;50.946;6.954;2023-05-31T06:59:06;17.50;74.70
5130;DHT22;2583;50.946;6.954;2023-05-31T07:01:33;17.60;70.90
5130;DHT22;2583;50.946;6.954;2023-05-31T07:04:00;17.70;66.40
5130;DHT22;2583;50.946;6.954;2023-05-31T07:06:28;17.70;64.90
5130;DHT22;2583;50.946;6.954;2023-05-31T07:08:54;17.90;66.00
5130;DHT22;2583;50.946;6.954;2023-05-31T07:11:21;17.90;58.30
5130;DHT22;2583;50.946;6.954;2023-05-31T07:13:48;18.00;58.40
5130;DHT22;2583;50.946;6.954;2023-05-31T07:16:15;18.10;56.90
5130;DHT22;2583;50.946;6.954;2023-05-31T07:18:42;18.20;54.90
5130;DHT22;2583;50.946;6.954;2023-05-31T07:21:08;18.30;50.30
5130;DHT22;2583;50.946;6.954;2023-05-31T07:23:36;18.40;50.00
5130;DHT22;2583;50.946;6.954;2023-05-31T07:26:02;18.50;48.10
5130;DHT22;2583;50.946;6.954;2023-05-31T07:28:29;18.60;46.10
5130;DHT22;2583;50.946;6.954;2023-05-31T07:30:56;18.70;46.20
5130;DHT22;2583;50.946;6.954;2023-05-31T07:33:23;18.80;44.50
5130;DHT22;2583;50.946;6.954;2023-05-31T07:35:57;18.90;44.50
5130;DHT22;2583;50.946;6.954;2023-05-31T07:38:24;19.00;42.80
5130;DHT22;2583;50.946;6.954;2023-05-31T07:40:51;19.10;41.50
5130;DHT22;2583;50.946;6.954;2023-05-31T07:43:18;19.20;38.30
5130;DHT22;2583;50.946;6.954;2023-05-31T07:45:48;19.30;37.60
5130;DHT22;2583;50.946;6.954;2023-05-31T07:48:19;19.40;38.40
5130;DHT22;2583;50.946;6.954;2023-05-31T07:50:47;19.60;35.40
5130;DHT22;2583;50.946;6.954;2023-05-31T07:53:14;19.60;34.80
5130;DHT22;2583;50.946;6.954;2023-05-31T07:55:41;19.70;33.10
5130;DHT22;2583;50.946;6.954;2023-05-31T07:58:08;19.90;32.80
5130;DHT22;2583;50.946;6.954;2023-05-31T08:00:38;19.90;31.40
5130;DHT22;2583;50.946;6.954;2023-05-31T08:03:05;19.90;30.90
5130;DHT22;2583;50.946;6.954;2023-05-31T08:05:32;20.10;30.60
5130;DHT22;2583;50.946;6.954;2023-05-31T08:07:59;20.20;29.70
5130;DHT22;2583;50.946;6.954;2023-05-31T08:10:26;20.40;29.00
5130;DHT22;2583;50.946;6.954;2023-05-31T08:12:53;20.50;28.20
5130;DHT22;2583;50.946;6.954;2023-05-31T08:15:20;20.50;27.20
5130;DHT22;2583;50.946;6.954;2023-05-31T08:17:47;20.70;25.40
5130;DHT22;2583;50.946;6.954;2023-05-31T08:20:14;20.80;24.40
5130;DHT22;2583;50.946;6.954;2023-05-31T08:22:44;20.90;24.40
5130;DHT22;2583;50.946;6.954;2023-05-31T08:25:12;21.00;24.50
5130;DHT22;2583;50.946;6.954;2023-05-31T08:27:40;21.10;24.00
5130;DHT22;2583;50.946;6.954;2023-05-31T08:30:11;21.10;23.70
5130;DHT22;2583;50.946;6.954;2023-05-31T08:32:39;21.20;23.50
5130;DHT22;2583;50.946;6.954;2023-05-31T08:35:08;21.20;21.70
5130;DHT22;2583;50.946;6.954;2023-05-31T08:37:38;21.30;21.90
5130;DHT22;2583;50.946;6.954;2023-05-31T08:40:05;21.50;21.20
5130;DHT22;2583;50.946;6.954;2023-05-31T08:42:51;21.70;20.30
5130;DHT22;2583;50.946;6.954;2023-05-31T08:45:21;21.80;18.00
5130;DHT22;2583;50.946;6.954;2023-05-31T08:48:08;22.00;18.20
5130;DHT22;2583;50.946;6.954;2023-05-31T08:50:37;22.20;18.20
5130;DHT22;2583;50.946;6.954;2023-05-31T08:53:06;22.30;17.30
5130;DHT22;2583;50.946;6.954;2023-05-31T08:55:35;22.30;16.30
5130;DHT22;2583;50.946;6.954;2023-05-31T08:58:04;22.40;16.40
5130;DHT22;2583;50.946;6.954;2023-05-31T09:00:32;22.50;15.80
5130;DHT22;2583;50.946;6.954;2023-05-31T09:02:59;22.70;14.70
5130;DHT22;2583;50.946;6.954;2023-05-31T09:05:26;22.80;15.20
5130;DHT22;2583;50.946;6.954;2023-05-31T09:07:53;22.90;14.40
5130;DHT22;2583;50.946;6.954;2023-05-31T09:10:20;22.80;12.80
5130;DHT22;2583;50.946;6.954;2023-05-31T09:12:47;22.80;13.40
5130;DHT22;2583;50.946;6.954;2023-05-31T09:15:14;22.90;13.50
5130;DHT22;2583;50.946;6.954;2023-05-31T09:17:45;23.00;13.30
5130;DHT22;2583;50.946;6.954;2023-05-31T09:20:12;23.20;13.30
5130;DHT22;2583;50.946;6.954;2023-05-31T09:22:39;23.40;11.90
5130;DHT22;2583;50.946;6.954;2023-05-31T09:25:06;23.40;11.00
5130;DHT22;2583;50.946;6.954;2023-05-31T09:27:35;23.40;10.60
5130;DHT22;2583;50.946;6.954;2023-05-31T09:32:34;23.50;10.30
5130;DHT22;2583;50.946;6.954;2023-05-31T09:35:27;23.60;10.40
5130;DHT22;2583;50.946;6.954;2023-05-31T09:37:55;23.80;10.60
5130;DHT22;2583;50.946;6.954;2023-05-31T09:40:25;23.90;9.10
5130;DHT22;2583;50.946;6.954;2023-05-31T09:42:53;24.00;9.30
5130;DHT22;2583;50.946;6.954;2023-05-31T09:45:20;24.00;8.90
5130;DHT22;2583;50.946;6.954;2023-05-31T09:47:48;23.90;7.80
5130;DHT22;2583;50.946;6.954;2023-05-31T09:50:20;23.90;7.40
5130;DHT22;2583;50.946;6.954;2023-05-31T09:52:48;24.00;7.60
5130;DHT22;2583;50.946;6.954;2023-05-31T09:55:16;24.00;7.80
5130;DHT22;2583;50.946;6.954;2023-05-31T09:57:44;23.90;7.60
5130;DHT22;2583;50.946;6.954;2023-05-31T10:00:13;23.90;8.00
5130;DHT22;2583;50.946;6.954;2023-05-31T10:02:48;24.00;7.50
5130;DHT22;2583;50.946;6.954;2023-05-31T10:05:16;24.00;7.90
5130;DHT22;2583;50.946;6.954;2023-05-31T10:07:53;24.10;7.80
5130;DHT22;2583;50.946;6.954;2023-05-31T10:10:21;24.00;7.10
5130;DHT22;2583;50.946;6.954;2023-05-31T10:12:54;24.00;7.50
5130;DHT22;2583;50.946;6.954;2023-05-31T10:15:26;24.00;7.20
5130;DHT22;2583;50.946;6.954;2023-05-31T10:18:04;24.10;7.30
5130;DHT22;2583;50.946;6.954;2023-05-31T10:21:12;24.20;6.90
5130;DHT22;2583;50.946;6.954;2023-05-31T10:23:53;24.20;6.80
5130;DHT22;2583;50.946;6.954;2023-05-31T10:26:22;24.20;6.80
5130;DHT22;2583;50.946;6.954;2023-05-31T10:29:13;24.20;6.90
5130;DHT22;2583;50.946;6.954;2023-05-31T10:31:48;24.40;7.00
5130;DHT22;2583;50.946;6.954;2023-05-31T10:34:25;24.60;7.00
5130;DHT22;2583;50.946;6.954;2023-05-31T10:36:53;24.70;6.80
5130;DHT22;2583;50.946;6.954;2023-05-31T10:39:55;24.70;6.60
5130;DHT22;2583;50.946;6.954;2023-05-31T10:48:10;24.80;5.60
5130;DHT22;2583;50.946;6.954;2023-05-31T10:50:56;24.80;5.40
5130;DHT22;2583;50.946;6.954;2023-05-31T10:53:37;25.00;5.80
5130;DHT22;2583;50.946;6.954;2023-05-31T10:56:06;24.90;5.20
5130;DHT22;2583;50.946;6.954;2023-05-31T10:58:43;24.90;5.10
5130;DHT22;2583;50.946;6.954;2023-05-31T11:01:14;25.00;5.30
5130;DHT22;2583;50.946;6.954;2023-05-31T11:03:49;25.00;5.40
5130;DHT22;2583;50.946;6.954;2023-05-31T11:06:31;25.20;5.30
5130;DHT22;2583;50.946;6.954;2023-05-31T11:09:13;25.10;5.40
5130;DHT22;2583;50.946;6.954;2023-05-31T11:11:44;25.00;5.10
5130;DHT22;2583;50.946;6.954;2023-05-31T11:19:24;25.50;5.60
5130;DHT22;2583;50.946;6.954;2023-05-31T11:21:54;25.60;5.00
5130;DHT22;2583;50.946;6.954;2023-05-31T11:24:47;25.60;5.10
5130;DHT22;2583;50.946;6.954;2023-05-31T11:27:14;25.50;4.90
5130;DHT22;2583;50.946;6.954;2023-05-31T11:32:11;25.30;4.90
5130;DHT22;2583;50.946;6.954;2023-05-31T11:34:55;25.60;5.10
5130;DHT22;2583;50.946;6.954;2023-05-31T11:37:31;25.70;4.30
5130;DHT22;2583;50.946;6.954;2023-05-31T11:40:04;25.80;3.90
5130;DHT22;2583;50.946;6.954;2023-05-31T11:42:38;25.80;4.20
5130;DHT22;2583;50.946;6.954;2023-05-31T11:47:49;26.20;3.70
5130;DHT22;2583;50.946;6.954;2023-05-31T11:50:16;26.10;3.50
5130;DHT22;2583;50.946;6.954;2023-05-31T11:52:44;26.20;3.90
5130;DHT22;2583;50.946;6.954;2023-05-31T11:55:11;26.30;3.80
5130;DHT22;2583;50.946;6.954;2023-05-31T11:57:46;26.20;3.70
5130;DHT22;2583;50.946;6.954;2023-05-31T12:00:14;26.20;4.30
5130;DHT22;2583;50.946;6.954;2023-05-31T12:02:43;26.50;4.20
5130;DHT22;2583;50.946;6.954;2023-05-31T12:05:14;26.80;3.90
5130;DHT22;2583;50.946;6.954;2023-05-31T12:07:43;27.10;3.40
5130;DHT22;2583;50.946;6.954;2023-05-31T12:10:10;27.20;3.50
5130;DHT22;2583;50.946;6.954;2023-05-31T12:12:39;27.30;3.00
5130;DHT22;2583;50.946;6.954;2023-05-31T12:15:07;27.50;3.10
5130;DHT22;2583;50.946;6.954;2023-05-31T12:17:38;27.40;2.70
5130;DHT22;2583;50.946;6.954;2023-05-31T12:20:09;27.40;2.40
5130;DHT22;2583;50.946;6.954;2023-05-31T12:22:39;27.30;2.60
5130;DHT22;2583;50.946;6.954;2023-05-31T12:25:06;27.60;2.60
5130;DHT22;2583;50.946;6.954;2023-05-31T12:27:33;27.80;2.30
5130;DHT22;2583;50.946;6.954;2023-05-31T12:30:17;28.00;2.50
5130;DHT22;2583;50.946;6.954;2023-05-31T12:32:45;28.20;2.20
5130;DHT22;2583;50.946;6.954;2023-05-31T12:35:12;28.60;2.20
5130;DHT22;2583;50.946;6.954;2023-05-31T12:37:40;28.40;2.10
5130;DHT22;2583;50.946;6.954;2023-05-31T12:40:17;28.60;2.60
5130;DHT22;2583;50.946;6.954;2023-05-31T12:42:50;28.70;2.70
5130;DHT22;2583;50.946;6.954;2023-05-31T12:45:18;29.00;3.10
5130;DHT22;2583;50.946;6.954;2023-05-31T12:47:45;28.90;1.60
5130;DHT22;2583;50.946;6.954;2023-05-31T12:50:22;29.00;1.60
5130;DHT22;2583;50.946;6.954;2023-05-31T12:52:56;29.00;1.90
5130;DHT22;2583;50.946;6.954;2023-05-31T12:55:24;29.10;1.30
5130;DHT22;2583;50.946;6.954;2023-05-31T12:57:51;29.30;1.10
5130;DHT22;2583;50.946;6.954;2023-05-31T13:00:19;29.70;1.40
5130;DHT22;2583;50.946;6.954;2023-05-31T13:02:46;29.90;1.40
5130;DHT22;2583;50.946;6.954;2023-05-31T13:05:13;30.10;1.20
5130;DHT22;2583;50.946;6.954;2023-05-31T13:07:40;29.80;1.20
5130;DHT22;2583;50.946;6.954;2023-05-31T13:10:07;29.90;1.20
5130;DHT22;2583;50.946;6.954;2023-05-31T13:12:38;30.20;1.60
5130;DHT22;2583;50.946;6.954;2023-05-31T13:15:05;30.30;1.60
5130;DHT22;2583;50.946;6.954;2023-05-31T13:17:33;30.60;1.30
5130;DHT22;2583;50.946;6.954;2023-05-31T13:20:00;30.90;1.60
5130;DHT22;2583;50.946;6.954;2023-05-31T13:22:38;30.90;2.10
5130;DHT22;2583;50.946;6.954;2023-05-31T13:25:06;29.90;3.10
5130;DHT22;2583;50.946;6.954;2023-05-31T13:27:33;29.80;3.40
5130;DHT22;2583;50.946;6.954;2023-05-31T13:30:00;30.70;3.30
5130;DHT22;2583;50.946;6.954;2023-05-31T13:32:27;31.40;2.40
5130;DHT22;2583;50.946;6.954;2023-05-31T13:34:54;31.60;1.90
5130;DHT22;2583;50.946;6.954;2023-05-31T13:37:25;31.50;1.80
5130;DHT22;2583;50.946;6.954;2023-05-31T13:39:52;32.20;1.80
5130;DHT22;2583;50.946;6.954;2023-05-31T13:42:21;32.20;1.20
5130;DHT22;2583;50.946;6.954;2023-05-31T13:44:48;32.40;1.00
5130;DHT22;2583;50.946;6.954;2023-05-31T13:47:15;32.70;1.00
5130;DHT22;2583;50.946;6.954;2023-05-31T13:49:41;32.60;1.00
5130;DHT22;2583;50.946;6.954;2023-05-31T13:52:08;32.80;1.00
5130;DHT22;2583;50.946;6.954;2023-05-31T13:54:39;32.90;1.00
5130;DHT22;2583;50.946;6.954;2023-05-31T13:57:06;32.90;1.00
5130;DHT22;2583;50.946;6.954;2023-05-31T13:59:33;32.80;1.00
5130;DHT22;2583;50.946;6.954;2023-05-31T14:02:00;33.10;1.00
5130;DHT22;2583;50.946;6.954;2023-05-31T14:04:27;33.10;1.00
5130;DHT22;2583;50.946;6.954;2023-05-31T14:06:53;33.30;1.00
5130;DHT22;2583;50.946;6.954;2023-05-31T14:09:20;33.30;1.00
5130;DHT22;2583;50.946;6.954;2023-05-31T14:11:47;33.00;1.00
5130;DHT22;2583;50.946;6.954;2023-05-31T14:14:14;32.70;1.00
5130;DHT22;2583;50.946;6.954;2023-05-31T14:16:41;32.60;1.00
5130;DHT22;2583;50.946;6.954;2023-05-31T14:19:08;32.20;1.00
5130;DHT22;2583;50.946;6.954;2023-05-31T14:21:35;31.80;1.00
5130;DHT22;2583;50.946;6.954;2023-05-31T14:24:08;31.20;1.00
5130;DHT22;2583;50.946;6.954;2023-05-31T14:26:35;30.40;1.10
5130;DHT22;2583;50.946;6.954;2023-05-31T14:29:02;29.50;1.90
5130;DHT22;2583;50.946;6.954;2023-05-31T14:31:28;28.90;2.60
5130;DHT22;2583;50.946;6.954;2023-05-31T14:33:56;28.50;2.80
5130;DHT22;2583;50.946;6.954;2023-05-31T14:36:23;28.20;3.30
5130;DHT22;2583;50.946;6.954;2023-05-31T14:38:50;28.00;3.50
5130;DHT22;2583;50.946;6.954;2023-05-31T14:41:17;27.80;3.70
5130;DHT22;2583;50.946;6.954;2023-05-31T14:43:44;27.70;4.00
5130;DHT22;2583;50.946;6.954;2023-05-31T14:46:12;27.50;4.30
5130;DHT22;2583;50.946;6.954;2023-05-31T14:48:40;27.40;4.60
5130;DHT22;2583;50.946;6.954;2023-05-31T14:51:08;27.40;4.70
5130;DHT22;2583;50.946;6.954;2023-05-31T14:53:34;27.30;4.80
5130;DHT22;2583;50.946;6.954;2023-05-31T14:56:01;27.40;5.10
5130;DHT22;2583;50.946;6.954;2023-05-31T14:58:32;27.30;5.00
5130;DHT22;2583;50.946;6.954;2023-05-31T15:00:58;27.20;5.00
5130;DHT22;2583;50.946;6.954;2023-05-31T15:03:25;27.10;5.10
5130;DHT22;2583;50.946;6.954;2023-05-31T15:05:52;27.20;5.20
5130;DHT22;2583;50.946;6.954;2023-05-31T15:08:19;27.20;5.10
5130;DHT22;2583;50.946;6.954;2023-05-31T15:10:46;27.20;5.10
5130;DHT22;2583;50.946;6.954;2023-05-31T15:13:13;27.20;5.10
5130;DHT22;2583;50.946;6.954;2023-05-31T15:15:40;27.10;5.10
5130;DHT22;2583;50.946;6.954;2023-05-31T15:18:06;27.00;5.20
5130;DHT22;2583;50.946;6.954;2023-05-31T15:20:33;26.90;5.30
5130;DHT22;2583;50.946;6.954;2023-05-31T15:23:00;27.00;5.50
5130;DHT22;2583;50.946;6.954;2023-05-31T15:25:27;27.10;5.60
5130;DHT22;2583;50.946;6.954;2023-05-31T15:27:54;27.10;5.40
5130;DHT22;2583;50.946;6.954;2023-05-31T15:30:21;27.10;5.40
5130;DHT22;2583;50.946;6.954;2023-05-31T15:32:47;26.90;5.30
5130;DHT22;2583;50.946;6.954;2023-05-31T15:35:14;26.80;5.60
5130;DHT22;2583;50.946;6.954;2023-05-31T15:37:41;26.90;5.40
5130;DHT22;2583;50.946;6.954;2023-05-31T15:40:08;26.80;5.40
5130;DHT22;2583;50.946;6.954;2023-05-31T15:42:35;26.60;5.60
5130;DHT22;2583;50.946;6.954;2023-05-31T15:45:02;26.50;5.60
5130;DHT22;2583;50.946;6.954;2023-05-31T15:47:29;26.50;5.90
5130;DHT22;2583;50.946;6.954;2023-05-31T15:49:59;26.50;5.70
5130;DHT22;2583;50.946;6.954;2023-05-31T15:52:26;26.50;6.00
5130;DHT22;2583;50.946;6.954;2023-05-31T15:54:53;26.60;5.90
5130;DHT22;2583;50.946;6.954;2023-05-31T15:57:20;26.70;6.00
5130;DHT22;2583;50.946;6.954;2023-05-31T15:59:47;26.80;5.70
5130;DHT22;2583;50.946;6.954;2023-05-31T16:02:14;26.90;5.70
5130;DHT22;2583;50.946;6.954;2023-05-31T16:04:40;27.00;5.90
5130;DHT22;2583;50.946;6.954;2023-05-31T16:07:07;27.00;5.70
5130;DHT22;2583;50.946;6.954;2023-05-31T16:09:34;27.00;5.70
5130;DHT22;2583;50.946;6.954;2023-05-31T16:12:01;26.90;5.50
5130;DHT22;2583;50.946;6.954;2023-05-31T16:14:29;26.80;5.50
5130;DHT22;2583;50.946;6.954;2023-05-31T16:16:56;26.70;5.50
5130;DHT22;2583;50.946;6.954;2023-05-31T16:19:23;26.70;5.70
5130;DHT22;2583;50.946;6.954;2023-05-31T16:21:49;26.80;5.80
5130;DHT22;2583;50.946;6.954;2023-05-31T16:24:16;26.80;6.00
5130;DHT22;2583;50.946;6.954;2023-05-31T16:26:43;26.70;5.90
5130;DHT22;2583;50.946;6.954;2023-05-31T16:29:10;26.60;5.80
5130;DHT22;2583;50.946;6.954;2023-05-31T16:31:37;26.40;5.90
5130;DHT22;2583;50.946;6.954;2023-05-31T16:34:04;26.30;6.20
5130;DHT22;2583;50.946;6.954;2023-05-31T16:36:31;26.10;6.00
5130;DHT22;2583;50.946;6.954;2023-05-31T16:38:58;26.10;6.30
5130;DHT22;2583;50.946;6.954;2023-05-31T16:41:30;26.10;6.50